Time,TemperatureF,DewpointF,PressureIn,WindDirection,WindDirectionDegrees,WindSpeedMPH,WindSpeedGustMPH,Humidity,HourlyPrecipIn,Conditions,Clouds,dailyrainin,SoftwareType,DateUTC
2013-03-11 00:12:00,20.5,15.0,30.16,SSW,195,22.0,-999.0,79,-99.99,,,0.01,weatherlink.com 1.10,2013-03-11 06:12:00,
2013-03-11 00:28:00,20.8,15.0,30.15,SW,221,26.0,-999.0,78,-99.99,,,0.01,weatherlink.com 1.10,2013-03-11 06:28:00,
2013-03-11 00:43:00,20.9,14.0,30.15,SSW,202,29.0,-999.0,76,-99.99,,,0.01,weatherlink.com 1.10,2013-03-11 06:43:00,
2013-03-11 00:58:00,20.8,14.0,30.15,SSW,207,27.0,-999.0,75,-99.99,,,0.01,weatherlink.com 1.10,2013-03-11 06:58:00,
2013-03-11 01:13:00,20.7,14.0,30.14,SSW,211,29.0,-999.0,74,-99.99,,,0.01,weatherlink.com 1.10,2013-03-11 07:13:00,
2013-03-11 01:28:00,20.2,13.0,30.13,SW,220,20.0,-999.0,75,-99.99,,,0.01,weatherlink.com 1.10,2013-03-11 07:28:00,
2013-03-11 01:43:00,19.7,13.0,30.12,SSW,212,22.0,-999.0,76,-99.99,,,0.01,weatherlink.com 1.10,2013-03-11 07:43:00,
2013-03-11 01:59:00,19.5,13.0,30.09,SW,221,25.0,-999.0,76,-99.99,,,0.01,weatherlink.com 1.10,2013-03-11 07:59:00,
2013-03-11 02:14:00,19.1,13.0,30.09,SSW,195,20.0,-999.0,77,-99.99,,,0.01,weatherlink.com 1.10,2013-03-11 08:14:00,
2013-03-11 02:29:00,18.6,14.0,30.11,SW,223,20.0,-999.0,82,-99.99,,,0.01,weatherlink.com 1.10,2013-03-11 08:29:00,
2013-03-11 02:44:00,18.6,15.0,30.12,South,189,16.0,-999.0,84,-99.99,,,0.01,weatherlink.com 1.10,2013-03-11 08:44:00,
2013-03-11 02:59:00,18.6,14.0,30.11,South,185,14.0,-999.0,83,-99.99,,,0.01,weatherlink.com 1.10,2013-03-11 08:59:00,
2013-03-11 03:14:00,18.6,15.0,30.10,SSW,207,18.0,-999.0,84,-99.99,,,0.01,weatherlink.com 1.10,2013-03-11 09:14:00,
2013-03-11 03:30:00,18.4,16.0,30.08,SW,232,20.0,-999.0,89,-99.99,,,0.01,weatherlink.com 1.10,2013-03-11 09:30:00,
2013-03-11 03:45:00,19.7,16.0,30.07,SW,235,22.0,-999.0,84,-99.99,,,0.01,weatherlink.com 1.10,2013-03-11 09:45:00,
2013-03-11 04:00:00,19.9,15.0,30.07,SW,217,21.0,-999.0,80,-99.99,,,0.01,weatherlink.com 1.10,2013-03-11 10:00:00,
2013-03-11 04:15:00,20.7,13.0,30.05,WSW,241,20.0,-999.0,73,-99.99,,,0.01,weatherlink.com 1.10,2013-03-11 10:15:00,
2013-03-11 04:30:00,20.4,13.0,30.07,West,263,31.0,-999.0,74,-99.99,,,0.01,weatherlink.com 1.10,2013-03-11 10:30:00,
2013-03-11 04:45:00,20.0,13.0,30.06,WSW,252,21.0,-999.0,75,-99.99,,,0.01,weatherlink.com 1.10,2013-03-11 10:45:00,
2013-03-11 05:01:00,19.7,13.0,30.06,WSW,255,20.0,-999.0,76,-99.99,,,0.01,weatherlink.com 1.10,2013-03-11 11:01:00,
2013-03-11 05:31:00,19.5,13.0,30.05,SW,217,24.0,-999.0,76,-99.99,,,0.01,weatherlink.com 1.10,2013-03-11 11:31:00,
2013-03-11 05:46:00,19.7,13.0,30.05,West,270,20.0,-999.0,75,-99.99,,,0.01,weatherlink.com 1.10,2013-03-11 11:46:00,
2013-03-11 06:01:00,20.0,12.0,30.07,West,277,19.0,-999.0,72,-99.99,,,0.01,weatherlink.com 1.10,2013-03-11 12:01:00,
2013-03-11 06:16:00,20.0,12.0,30.07,West,259,26.0,-999.0,70,-99.99,,,0.01,weatherlink.com 1.10,2013-03-11 12:16:00,
2013-03-11 06:31:00,19.9,12.0,30.06,West,264,24.0,-999.0,71,-99.99,,,0.01,weatherlink.com 1.10,2013-03-11 12:31:00,
2013-03-11 06:47:00,19.7,12.0,30.06,SW,236,24.0,-999.0,72,-99.99,,,0.01,weatherlink.com 1.10,2013-03-11 12:47:00,
2013-03-11 07:02:00,19.6,13.0,30.05,WNW,294,19.0,-999.0,74,-99.99,,,0.00,weatherlink.com 1.10,2013-03-11 13:02:00,
2013-03-11 07:17:00,19.1,13.0,30.06,WSW,248,27.0,-999.0,76,-99.99,,,0.00,weatherlink.com 1.10,2013-03-11 13:17:00,
2013-03-11 07:32:00,18.6,13.0,30.06,West,263,16.0,-999.0,80,-99.99,,,0.00,weatherlink.com 1.10,2013-03-11 13:32:00,
2013-03-11 07:47:00,18.4,14.0,30.06,West,266,13.0,-999.0,81,-99.99,,,0.00,weatherlink.com 1.10,2013-03-11 13:47:00,
2013-03-11 08:03:00,18.7,13.0,30.06,WSW,251,13.0,-999.0,77,-99.99,,,0.00,weatherlink.com 1.10,2013-03-11 14:03:00,
2013-03-11 08:18:00,18.6,13.0,30.05,West,261,12.0,-999.0,78,-99.99,,,0.00,weatherlink.com 1.10,2013-03-11 14:18:00,
2013-03-11 08:33:00,18.5,13.0,30.04,WSW,250,14.0,-999.0,80,-99.99,,,0.00,weatherlink.com 1.10,2013-03-11 14:33:00,
2013-03-11 08:48:00,18.6,13.0,30.05,WSW,246,15.0,-999.0,79,-99.99,,,0.00,weatherlink.com 1.10,2013-03-11 14:48:00,
2013-03-11 09:03:00,18.9,13.0,30.04,West,281,12.0,-999.0,77,-99.99,,,0.00,weatherlink.com 1.10,2013-03-11 15:03:00,
2013-03-11 09:18:00,19.3,13.0,30.05,West,260,18.0,-999.0,77,-99.99,,,0.00,weatherlink.com 1.10,2013-03-11 15:18:00,
2013-03-11 09:34:00,20.2,14.0,30.06,West,261,13.0,-999.0,78,-99.99,,,0.00,weatherlink.com 1.10,2013-03-11 15:34:00,
2013-03-11 09:49:00,21.0,15.0,30.06,West,265,14.0,-999.0,78,-99.99,,,0.00,weatherlink.com 1.10,2013-03-11 15:49:00,
2013-03-11 10:04:00,21.5,16.0,30.07,NW,311,10.0,-999.0,78,-99.99,,,0.00,weatherlink.com 1.10,2013-03-11 16:04:00,
2013-03-11 10:19:00,21.9,17.0,30.06,WSW,251,17.0,-999.0,81,-99.99,,,0.00,weatherlink.com 1.10,2013-03-11 16:19:00,
2013-03-11 10:34:00,21.9,18.0,30.06,SW,232,7.0,-999.0,83,-99.99,,,0.00,weatherlink.com 1.10,2013-03-11 16:34:00,
2013-03-11 10:50:00,22.0,19.0,30.05,SW,229,18.0,-999.0,86,-99.99,,,0.00,weatherlink.com 1.10,2013-03-11 16:50:00,
2013-03-11 11:05:00,22.7,19.0,30.03,SW,234,9.0,-999.0,84,-99.99,,,0.00,weatherlink.com 1.10,2013-03-11 17:05:00,
2013-03-11 11:20:00,23.0,19.0,30.02,SW,216,17.0,-999.0,83,-99.99,,,0.00,weatherlink.com 1.10,2013-03-11 17:20:00,
2013-03-11 11:35:00,23.2,19.0,30.01,WSW,249,13.0,-999.0,84,-99.99,,,0.00,weatherlink.com 1.10,2013-03-11 17:35:00,
2013-03-11 11:50:00,23.3,19.0,29.99,NNW,327,6.0,-999.0,84,-99.99,,,0.00,weatherlink.com 1.10,2013-03-11 17:50:00,
2013-03-11 12:06:00,22.7,19.0,29.97,West,261,15.0,-999.0,85,-99.99,,,0.00,weatherlink.com 1.10,2013-03-11 18:06:00,
2013-03-11 12:21:00,23.7,20.0,29.97,SW,231,16.0,-999.0,85,-99.99,,,0.00,weatherlink.com 1.10,2013-03-11 18:21:00,
2013-03-11 13:06:00,24.1,21.0,29.97,WSW,245,17.0,-999.0,87,-99.99,,,0.00,weatherlink.com 1.10,2013-03-11 19:06:00,
2013-03-11 13:37:00,25.0,22.0,29.94,WSW,237,16.0,-999.0,87,-99.99,,,0.00,weatherlink.com 1.10,2013-03-11 19:37:00,
2013-03-11 13:52:00,26.3,21.0,29.93,WNW,287,15.0,-999.0,81,-99.99,,,0.00,weatherlink.com 1.10,2013-03-11 19:52:00,
2013-03-11 14:07:00,27.4,20.0,29.92,SSW,194,23.0,-999.0,75,-99.99,,,0.00,weatherlink.com 1.10,2013-03-11 20:07:00,
2013-03-11 14:22:00,25.7,22.0,29.93,SW,225,29.0,-999.0,84,-99.99,,,0.00,weatherlink.com 1.10,2013-03-11 20:22:00,
2013-03-11 14:38:00,25.8,21.0,29.92,SSW,213,18.0,-999.0,83,-99.99,,,0.00,weatherlink.com 1.10,2013-03-11 20:38:00,
2013-03-11 14:52:00,26.6,21.0,29.92,WNW,300,8.0,-999.0,80,-99.99,,,0.00,weatherlink.com 1.10,2013-03-11 20:52:00,
2013-03-11 15:07:00,27.5,21.0,29.92,South,182,28.0,-999.0,75,-99.99,,,0.00,weatherlink.com 1.10,2013-03-11 21:07:00,
2013-03-11 15:23:00,28.4,20.0,29.92,WNW,288,15.0,-999.0,72,-99.99,,,0.00,weatherlink.com 1.10,2013-03-11 21:23:00,
2013-03-11 15:38:00,28.4,20.0,29.92,West,267,18.0,-999.0,70,-99.99,,,0.00,weatherlink.com 1.10,2013-03-11 21:38:00,
2013-03-11 15:53:00,26.6,21.0,29.93,West,274,18.0,-999.0,80,-99.99,,,0.00,weatherlink.com 1.10,2013-03-11 21:53:00,
2013-03-11 16:08:00,25.6,21.0,29.94,SW,230,14.0,-999.0,83,-99.99,,,0.00,weatherlink.com 1.10,2013-03-11 22:08:00,
2013-03-11 16:23:00,23.7,21.0,29.95,WSW,240,14.0,-999.0,90,-99.99,,,0.00,weatherlink.com 1.10,2013-03-11 22:23:00,
2013-03-11 16:38:00,23.9,22.0,29.96,WSW,242,18.0,-999.0,91,-99.99,,,0.00,weatherlink.com 1.10,2013-03-11 22:38:00,
2013-03-11 16:54:00,24.0,22.0,29.97,SW,217,8.0,-999.0,92,-99.99,,,0.00,weatherlink.com 1.10,2013-03-11 22:54:00,
2013-03-11 17:09:00,23.9,22.0,29.98,WSW,246,11.0,-999.0,93,-99.99,,,0.00,weatherlink.com 1.10,2013-03-11 23:09:00,
2013-03-11 17:24:00,23.7,22.0,29.98,WNW,292,8.0,-999.0,93,-99.99,,,0.00,weatherlink.com 1.10,2013-03-11 23:24:00,
2013-03-11 17:39:00,23.4,22.0,29.99,SW,227,18.0,-999.0,93,-99.99,,,0.00,weatherlink.com 1.10,2013-03-11 23:39:00,
2013-03-11 17:54:00,23.6,22.0,30.01,SW,224,6.0,-999.0,93,-99.99,,,0.00,weatherlink.com 1.10,2013-03-11 23:54:00,
2013-03-11 18:09:00,23.2,22.0,29.99,WSW,241,12.0,-999.0,93,-99.99,,,0.00,weatherlink.com 1.10,2013-03-12 00:09:00,
2013-03-11 18:24:00,23.2,22.0,30.01,WSW,252,9.0,-999.0,93,-99.99,,,0.00,weatherlink.com 1.10,2013-03-12 00:24:00,
2013-03-11 18:40:00,23.2,22.0,30.02,WSW,254,7.0,-999.0,93,-99.99,,,0.00,weatherlink.com 1.10,2013-03-12 00:40:00,
2013-03-11 18:55:00,23.0,21.0,30.02,WNW,292,9.0,-999.0,93,-99.99,,,0.00,weatherlink.com 1.10,2013-03-12 00:55:00,
2013-03-11 19:10:00,22.5,21.0,30.03,WNW,284,11.0,-999.0,93,-99.99,,,0.00,weatherlink.com 1.10,2013-03-12 01:10:00,
2013-03-11 19:25:00,21.8,20.0,30.04,WSW,248,12.0,-999.0,93,-99.99,,,0.00,weatherlink.com 1.10,2013-03-12 01:25:00,
2013-03-11 19:40:00,22.1,20.0,30.04,WNW,286,5.0,-999.0,93,-99.99,,,0.00,weatherlink.com 1.10,2013-03-12 01:40:00,
2013-03-11 19:55:00,22.0,20.0,30.05,West,269,6.0,-999.0,93,-99.99,,,0.00,weatherlink.com 1.10,2013-03-12 01:55:00,
2013-03-11 20:11:00,21.5,20.0,30.06,WNW,294,7.0,-999.0,93,-99.99,,,0.00,weatherlink.com 1.10,2013-03-12 02:11:00,
2013-03-11 20:26:00,21.3,20.0,30.06,West,277,5.0,-999.0,93,-99.99,,,0.00,weatherlink.com 1.10,2013-03-12 02:26:00,
2013-03-11 20:42:00,21.4,20.0,30.07,NW,315,8.0,-999.0,93,-99.99,,,0.00,weatherlink.com 1.10,2013-03-12 02:42:00,
2013-03-11 20:56:00,21.5,20.0,30.07,WNW,289,6.0,-999.0,93,-99.99,,,0.00,weatherlink.com 1.10,2013-03-12 02:56:00,
2013-03-11 21:11:00,21.4,20.0,30.08,WNW,284,6.0,-999.0,93,-99.99,,,0.00,weatherlink.com 1.10,2013-03-12 03:11:00,
2013-03-11 21:26:00,21.0,19.0,30.09,West,277,8.0,-999.0,93,-99.99,,,0.00,weatherlink.com 1.10,2013-03-12 03:26:00,
2013-03-11 21:42:00,20.8,19.0,30.10,West,263,10.0,-999.0,92,-99.99,,,0.00,weatherlink.com 1.10,2013-03-12 03:42:00,
2013-03-11 21:57:00,20.7,19.0,30.10,WSW,250,7.0,-999.0,92,-99.99,,,0.00,weatherlink.com 1.10,2013-03-12 03:57:00,
2013-03-11 22:12:00,20.7,19.0,30.10,West,281,6.0,-999.0,92,-99.99,,,0.00,weatherlink.com 1.10,2013-03-12 04:12:00,
2013-03-11 22:27:00,20.4,19.0,30.10,West,261,12.0,-999.0,93,-99.99,,,0.00,weatherlink.com 1.10,2013-03-12 04:27:00,
2013-03-11 22:42:00,20.2,18.0,30.11,WSW,248,7.0,-999.0,92,-99.99,,,0.00,weatherlink.com 1.10,2013-03-12 04:42:00,
2013-03-11 22:57:00,19.6,18.0,30.11,WNW,293,7.0,-999.0,92,-99.99,,,0.00,weatherlink.com 1.10,2013-03-12 04:57:00,
2013-03-11 23:13:00,19.3,17.0,30.12,WNW,294,6.0,-999.0,92,-99.99,,,0.00,weatherlink.com 1.10,2013-03-12 05:13:00,
2013-03-11 23:28:00,19.3,17.0,30.13,WNW,296,5.0,-999.0,92,-99.99,,,0.00,weatherlink.com 1.10,2013-03-12 05:28:00,
2013-03-11 23:43:00,19.0,17.0,30.14,WNW,302,5.0,-999.0,92,-99.99,,,0.00,weatherlink.com 1.10,2013-03-12 05:43:00,
2013-03-11 23:58:00,17.8,16.0,30.14,NW,310,6.0,-999.0,91,-99.99,,,0.00,weatherlink.com 1.10,2013-03-12 05:58:00,